Latest Weather Observations for Yamba

IDN60801

Issued at 1:32 pm EST Saturday 5 September 2015 (issued every 30 minutes, with the page automatically refreshed every 10 minutes)

About weather observations | Map of weather stations | Latest weather observations for NSW | Other Formats
Station Details ID: 058012 Name: YAMBA PILOT STATION Lat: -29.43 Lon: 153.36 Height: 27.4 m
Data from the previous 72 hours. | See also: Recent months at Yamba
Date/Time
EST
Temp
°C
App
Temp
°C
Dew
Point
Rel
Hum
%
Delta-T
°C
Wind Press
QNH
hPa
Press
MSL
hPa
Rain
since 9 am
mm
Dir
 
Spd
km/h
Gust
km/h
Spd
kts
Gust
kts
05/01:30pm 19.9 18.7 12.9 64 4.0 ENE 11 17 6 9 1019.5 1019.4 0.0
05/01:00pm 19.8 18.6 12.8 64 3.9 ENE 11 17 6 9 1020.1 1020.0 0.0
05/12:30pm 19.9 19.3 13.6 67 3.6 ENE 9 15 5 8 1020.6 1020.5 0.0
05/12:00pm 19.3 18.2 11.8 62 4.1 NE 9 15 5 8 1021.3 1021.2 0.0
05/11:30am 21.0 21.0 14.2 65 4.0 N 7 11 4 6 1021.9 1021.8 0.0
05/11:00am 20.0 20.2 14.1 69 3.4 NNE 6 9 3 5 1022.3 1022.2 0.0
05/10:30am 20.3 21.2 16.7 80 2.2 N 7 11 4 6 1022.7 1022.6 0.0
05/10:00am 18.9 19.2 14.6 76 2.5 N 6 9 3 5 1023.1 1023.0 0.0
05/09:30am 16.8 17.3 14.1 84 1.5 NE 4 9 2 5 1023.2 1023.1 0.0
05/09:00am 15.9 16.1 14.1 89 1.0 SE 6 7 3 4 1023.4 1023.3 3.4
05/08:30am 15.4 15.4 14.3 93 0.6 SE 7 11 4 6 1023.4 1023.3 3.4
05/08:00am 15.3 15.2 15.0 98 0.2 SE 9 11 5 6 1023.3 1023.2 3.4
05/07:30am 14.6 14.3 14.3 98 0.2 SSW 9 13 5 7 1022.9 1022.8 3.4
05/07:00am 14.4 14.4 14.1 98 0.2 SSW 7 9 4 5 1022.6 1022.5 3.4
05/06:30am 14.0 13.8 13.7 98 0.2 SSW 7 9 4 5 1022.4 1022.3 3.4
05/06:00am 13.8 13.8 13.5 98 0.2 SSW 6 9 3 5 1021.9 1021.8 3.4
05/05:30am 14.0 13.8 13.7 98 0.2 SSW 7 11 4 6 1021.6 1021.5 3.4
05/05:00am 14.0 13.5 13.7 98 0.2 S 9 13 5 7 1021.3 1021.2 3.4
05/04:30am 14.3 13.9 14.0 98 0.2 SSW 9 11 5 6 1021.2 1021.1 3.4
05/04:00am 14.5 14.1 14.2 98 0.2 S 9 15 5 8 1020.9 1020.8 3.2
05/03:30am 14.5 14.5 14.2 98 0.2 SSW 7 9 4 5 1020.8 1020.7 3.0
05/03:00am 14.5 14.5 14.2 98 0.2 SSW 7 9 4 5 1020.5 1020.4 3.0
05/02:30am 14.8 15.1 14.5 98 0.2 WSW 6 7 3 4 1020.7 1020.6 3.0
05/02:00am 15.0 15.4 14.7 98 0.2 WSW 6 7 3 4 1021.0 1020.9 3.0
05/01:30am 15.2 15.5 14.9 98 0.2 SW 7 11 4 6 1021.2 1021.1 2.4
05/01:00am 15.3 15.6 15.0 98 0.2 S 7 13 4 7 1021.4 1021.3 1.8
05/12:30am 15.4 17.1 15.1 98 0.2 CALM 0 0 0 0 1021.4 1021.3 1.8
05/12:00am 15.5 15.9 15.2 98 0.2 S 7 13 4 7 1021.5 1021.4 1.6
 
Date/Time
EST
Temp
°C
App
Temp
°C
Dew
Point
Rel
Hum
%
Delta-T
°C
Wind Press
QNH
hPa
Press
MSL
hPa
Rain
since 9 am
mm
Dir
 
Spd
km/h
Gust
km/h
Spd
kts
Gust
kts
04/11:30pm 15.4 15.7 14.9 97 0.3 SE 7 11 4 6 1021.6 1021.5 0.6
04/11:00pm 15.5 15.0 14.9 96 0.3 SSE 11 17 6 9 1021.7 1021.6 0.2
04/10:30pm 15.9 14.2 13.6 86 1.3 S 15 19 8 10 1021.7 1021.6 0.0
04/10:00pm 15.9 15.8 13.4 85 1.4 WSW 6 9 3 5 1021.8 1021.7 0.0
04/09:30pm 16.2 16.1 13.3 83 1.6 SSW 6 9 3 5 1021.7 1021.6 0.0
04/09:00pm 16.5 15.9 13.6 83 1.6 S 9 15 5 8 1021.4 1021.3 0.0
04/08:30pm 16.6 16.2 14.2 86 1.4 SSE 9 13 5 7 1021.5 1021.4 0.0
04/08:00pm 16.1 14.2 14.3 89 1.0 SE 17 20 9 11 1021.4 1021.3 0.0
04/07:30pm 16.3 13.1 14.3 88 1.1 SSE 24 35 13 19 1021.1 1021.0 0.0
04/07:00pm 17.2 15.8 12.3 73 2.7 S 11 20 6 11 1020.8 1020.7 0.0
04/06:30pm 16.5 14.9 12.8 79 2.1 S 13 19 7 10 1020.2 1020.1 0.0
04/06:00pm 17.0 14.2 12.7 76 2.4 SSE 19 24 10 13 1020.1 1020.0 0.0
04/05:30pm 17.4 13.9 13.5 78 2.2 SSE 24 33 13 18 1019.7 1019.6 0.0
04/05:00pm 18.6 16.5 13.5 72 2.9 SSE 17 26 9 14 1019.1 1019.0 0.0
04/04:30pm 18.8 17.0 13.2 70 3.2 SSE 15 22 8 12 1019.0 1018.9 0.0
04/04:00pm 18.6 15.3 12.8 69 3.2 SSE 22 32 12 17 1018.9 1018.8 0.0
04/03:30pm 19.9 17.4 13.6 67 3.6 SSE 19 28 10 15 1018.6 1018.5 0.0
04/03:00pm 20.1 16.9 13.1 64 4.0 SSE 22 32 12 17 1018.3 1018.2 0.0
04/02:30pm 20.4 16.8 12.9 62 4.3 SSE 24 35 13 19 1018.1 1018.0 0.0
04/02:00pm 20.6 17.0 13.1 62 4.3 SSE 24 43 13 23 1017.9 1017.8 0.0
04/01:30pm 20.8 17.3 13.3 62 4.3 SSE 24 37 13 20 1017.9 1017.8 0.0
04/01:00pm 20.7 16.6 12.7 60 4.5 SSE 26 43 14 23 1018.0 1017.9 0.0
04/12:36pm 20.6 16.0 12.3 59 4.7 S 28 50 15 27 1018.3 1018.2 0.0
04/12:30pm 20.6 16.3 12.1 58 4.8 SSE 26 39 14 21 1018.3 1018.2 0.0
04/12:00pm 20.0 14.4 11.5 58 4.7 SSE 32 57 17 31 1018.3 1018.2 0.0
04/11:58am 20.4 15.5 12.6 61 4.4 SSE 30 48 16 26 1018.3 1018.2 0.0
04/11:30am 20.3 15.7 12.3 60 4.5 SSE 28 44 15 24 1018.3 1018.2 0.0
04/11:00am 20.0 14.3 11.2 57 4.8 S 32 50 17 27 1018.4 1018.3 0.0
04/10:34am 19.9 14.2 11.1 57 4.8 S 32 50 17 27 1018.1 1018.0 0.0
04/10:30am 20.3 15.2 12.0 59 4.6 SSE 30 44 16 24 1018.1 1018.0 0.0
04/10:00am 19.8 14.5 11.3 58 4.7 SSE 30 52 16 28 1018.1 1018.0 0.0
04/09:32am 19.8 14.6 10.2 54 5.2 SSE 28 54 15 29 1017.9 1017.8 0.0
04/09:30am 19.9 15.2 10.6 55 5.0 SSE 26 44 14 24 1017.8 1017.7 0.0
04/09:00am 17.8 14.9 8.1 53 4.9 SSW 13 24 7 13 1017.8 1017.7 0.0
04/08:30am 17.1 14.4 7.5 53 4.8 SW 11 22 6 12 1017.6 1017.5 0.0
04/08:00am 15.5 12.6 6.5 55 4.4 WSW 11 20 6 11 1017.5 1017.4 0.0
04/07:30am 14.3 11.9 7.1 62 3.5 WSW 9 15 5 8 1016.9 1016.8 0.0
04/07:00am 12.9 10.2 5.8 62 3.3 SW 9 17 5 9 1016.3 1016.2 0.0
04/06:30am 12.6 9.9 5.8 63 3.2 WSW 9 22 5 12 1015.8 1015.7 0.0
04/06:00am 12.0 9.3 5.6 65 3.0 WSW 9 15 5 8 1015.1 1015.0 0.0
04/05:30am 12.2 9.3 6.3 67 2.8 W 11 15 6 8 1014.8 1014.7 0.0
04/05:00am 12.7 9.8 6.7 67 2.9 W 11 17 6 9 1014.7 1014.6 0.0
04/04:30am 12.9 9.6 6.5 65 3.1 W 13 19 7 10 1014.5 1014.4 0.0
04/04:00am 13.1 10.2 6.5 64 3.2 W 11 17 6 9 1014.2 1014.1 0.0
04/03:30am 12.9 9.8 7.1 68 2.8 W 13 19 7 10 1014.0 1013.9 0.0
04/03:00am 13.1 9.5 6.7 65 3.1 W 15 20 8 11 1013.8 1013.7 0.0
04/02:30am 13.5 9.9 6.8 64 3.2 W 15 20 8 11 1013.5 1013.4 0.0
04/02:00am 13.1 9.5 6.7 65 3.1 W 15 20 8 11 1013.6 1013.5 0.0
04/01:30am 13.2 10.5 7.2 67 2.9 WNW 11 20 6 11 1013.9 1013.8 0.0
04/01:00am 13.5 10.3 6.8 64 3.2 WNW 13 20 7 11 1013.6 1013.5 0.0
04/12:30am 14.2 11.2 6.1 58 3.9 W 11 20 6 11 1013.7 1013.6 0.0
04/12:00am 14.0 10.6 6.1 59 3.8 W 13 19 7 10 1013.6 1013.5 0.0
 
Date/Time
EST
Temp
°C
App
Temp
°C
Dew
Point
Rel
Hum
%
Delta-T
°C
Wind Press
QNH
hPa
Press
MSL
hPa
Rain
since 9 am
mm
Dir
 
Spd
km/h
Gust
km/h
Spd
kts
Gust
kts
03/11:30pm 13.6 10.3 6.2 61 3.5 W 13 19 7 10 1014.0 1013.9 0.0
03/11:00pm 13.7 10.4 6.3 61 3.5 W 13 17 7 9 1014.1 1014.0 0.0
03/10:30pm 13.4 11.1 7.6 68 2.8 WNW 9 13 5 7 1013.9 1013.8 0.0
03/10:00pm 13.2 11.1 6.5 64 3.2 NNW 7 9 4 5 1013.9 1013.8 0.0
03/09:30pm 14.3 11.5 6.9 61 3.6 NW 11 19 6 10 1013.4 1013.3 0.0
03/09:00pm 14.7 12.0 7.3 61 3.6 NW 11 19 6 10 1013.0 1012.9 0.0
03/08:30pm 14.7 12.3 6.8 59 3.8 NW 9 15 5 8 1012.7 1012.6 0.0
03/08:00pm 15.0 12.3 5.8 54 4.4 WNW 9 17 5 9 1012.5 1012.4 0.0
03/07:30pm 15.6 11.6 4.9 49 5.0 W 15 24 8 13 1011.7 1011.7 0.0
03/07:00pm 16.0 11.5 5.9 51 4.9 W 19 30 10 16 1011.1 1011.1 0.0
03/06:30pm 16.0 11.9 6.2 52 4.8 W 17 24 9 13 1010.6 1010.6 0.0
03/06:00pm 16.5 12.7 5.8 49 5.2 W 15 22 8 12 1010.2 1010.2 0.0
03/05:30pm 17.2 12.8 6.4 49 5.3 W 19 32 10 17 1009.8 1009.8 0.0
03/05:00pm 18.2 12.1 6.4 46 5.9 W 28 50 15 27 1009.1 1009.1 0.0
03/04:30pm 19.2 12.1 5.6 41 6.7 W 32 57 17 31 1008.4 1008.4 0.0
03/04:00pm 19.7 12.6 5.7 40 6.9 W 32 56 17 30 1007.5 1007.5 0.0
03/03:30pm 23.1 16.4 3.6 28 9.5 WNW 28 52 15 28 1006.3 1006.3 0.0
03/03:00pm 23.3 16.5 3.3 27 9.7 WNW 28 46 15 25 1005.9 1005.9 0.0
03/02:38pm 23.4 15.0 1.7 24 10.2 WNW 35 54 19 29 1005.5 1005.5 0.0
03/02:30pm 23.5 15.2 2.4 25 10.0 WNW 35 52 19 28 1005.2 1005.2 0.0
03/02:03pm 24.3 17.3 1.9 23 10.6 W 28 50 15 27 1005.1 1005.1 0.0
03/02:00pm 24.3 18.3 3.6 26 10.2 W 24 50 13 27 1005.3 1005.3 0.0
03/01:33pm 24.5 18.0 6.7 32 9.2 WNW 30 48 16 26 1005.2 1005.2 0.0
03/01:30pm 24.5 17.1 3.8 26 10.2 WNW 32 48 17 26 1005.2 1005.2 0.0
03/01:00pm 24.4 15.8 2.5 24 10.6 WNW 37 57 20 31 1005.2 1005.2 0.0
03/12:31pm 24.4 17.1 4.7 28 9.9 WNW 32 54 17 29 1005.7 1005.7 0.0
03/12:30pm 24.4 17.1 4.7 28 9.9 WNW 32 46 17 25 1005.7 1005.7 0.0
03/12:01pm 24.2 18.4 7.8 35 8.7 WNW 28 50 15 27 1006.6 1006.6 0.0
03/12:00pm 24.4 19.2 8.8 37 8.4 WNW 26 43 14 23 1006.6 1006.6 0.0
03/11:30am 24.4 18.7 11.0 43 7.5 WNW 32 50 17 27 1007.2 1007.2 0.0
03/11:27am 24.5 18.9 10.0 40 8.0 WNW 30 48 16 26 1007.2 1007.2 0.0
03/11:00am 23.0 20.0 13.8 56 5.4 WNW 22 37 12 20 1007.7 1007.7 0.0
03/10:30am 24.0 23.0 16.5 63 4.6 NW 17 26 9 14 1008.1 1008.1 0.0
03/10:00am 23.2 23.2 17.2 69 3.7 NW 13 20 7 11 1008.5 1008.5 0.0
03/09:30am 21.9 21.4 16.8 73 3.1 NW 15 22 8 12 1008.6 1008.6 0.0
03/09:00am 20.6 19.4 16.2 76 2.7 NNW 17 26 9 14 1008.8 1008.8 1.8
03/08:30am 19.2 18.0 16.2 83 1.8 NNW 17 28 9 15 1008.7 1008.7 1.8
03/08:00am 18.3 17.4 16.8 91 0.9 NNW 17 30 9 16 1008.8 1008.8 1.8
03/07:30am 17.2 16.7 16.9 98 0.2 NW 15 20 8 11 1008.8 1008.8 1.8
03/07:00am 16.2 15.3 15.9 98 0.2 NNW 15 22 8 12 1008.6 1008.6 1.8
03/06:30am 15.3 14.1 15.0 98 0.2 NNW 15 22 8 12 1008.7 1008.7 1.8
03/06:00am 14.5 13.8 14.2 98 0.2 NNW 11 17 6 9 1008.2 1008.2 1.8
03/05:30am 14.4 13.5 13.8 96 0.3 NW 11 19 6 10 1009.1 1009.1 1.4
03/05:00am 14.8 13.8 13.5 92 0.7 NW 11 19 6 10 1009.4 1009.4 1.2
03/04:30am 14.4 12.1 11.7 84 1.5 WSW 15 28 8 15 1008.9 1008.9 0.2
03/04:00am 15.8 14.3 13.1 84 1.5 NW 13 19 7 10 1008.2 1008.2 0.0
03/03:30am 15.0 13.6 12.1 83 1.6 NNW 11 17 6 9 1008.1 1008.1 0.0
03/03:00am 15.2 14.5 12.0 81 1.7 NW 7 9 4 5 1009.1 1009.1 0.0
03/02:30am 15.9 14.8 12.1 78 2.1 NNW 9 15 5 8 1009.6 1009.6 0.0
03/02:00am 16.6 14.6 11.5 72 2.8 NNW 13 20 7 11 1010.7 1010.7 0.0
03/01:30am 16.6 15.7 12.6 77 2.2 N 9 13 5 7 1011.2 1011.2 0.0
03/01:00am 15.9 15.2 12.1 78 2.1 NNE 7 13 4 7 1011.5 1011.5 0.0
03/12:30am 15.1 14.3 11.1 77 2.1 N 6 9 3 5 1013.2 1013.1 0.0
03/12:00am 15.4 14.3 10.6 73 2.5 NW 7 11 4 6 1014.3 1014.2 0.0
 
Date/Time
EST
Temp
°C
App
Temp
°C
Dew
Point
Rel
Hum
%
Delta-T
°C
Wind Press
QNH
hPa
Press
MSL
hPa
Rain
since 9 am
mm
Dir
 
Spd
km/h
Gust
km/h
Spd
kts
Gust
kts
02/11:30pm 15.7 14.5 10.2 70 2.9 NNW 7 11 4 6 1014.0 1013.9 0.0
02/11:00pm 15.7 14.6 10.5 71 2.7 NNW 7 11 4 6 1013.9 1013.8 0.0
02/10:30pm 16.4 15.5 11.3 72 2.8 WNW 7 13 4 7 1014.5 1014.4 0.0
02/10:00pm 16.9 15.2 11.2 69 3.1 NNW 11 19 6 10 1014.4 1014.3 0.0
02/09:30pm 17.2 15.3 11.7 70 3.0 NNW 13 20 7 11 1014.0 1013.9 0.0
02/09:00pm 17.7 17.0 14.2 80 2.0 N 11 22 6 12 1013.9 1013.8 0.0
02/08:30pm 18.0 17.2 14.1 78 2.2 N 11 17 6 9 1014.0 1013.9 0.0
02/08:00pm 17.9 17.3 13.4 75 2.5 N 9 15 5 8 1014.7 1014.6 0.0
02/07:30pm 17.7 16.9 12.8 73 2.7 N 9 19 5 10 1014.5 1014.4 0.0
02/07:00pm 17.7 16.8 12.6 72 2.8 NNW 9 13 5 7 1014.8 1014.7 0.0
02/06:30pm 17.5 16.4 11.8 69 3.1 N 9 19 5 10 1015.0 1014.9 0.0
02/06:00pm 17.4 16.1 11.4 68 3.3 N 9 20 5 11 1014.6 1014.5 0.0
02/05:30pm 17.7 16.7 12.4 71 2.9 N 9 19 5 10 1014.6 1014.5 0.0
02/05:00pm 18.6 17.0 11.4 63 3.9 NNE 11 19 6 10 1014.6 1014.5 0.0
02/04:30pm 18.6 17.1 11.9 65 3.7 NE 11 19 6 10 1014.4 1014.3 0.0
02/04:00pm 18.9 18.0 12.6 67 3.5 NE 9 15 5 8 1014.7 1014.6 0.0
02/03:30pm 18.9 17.3 11.7 63 4.0 NE 11 17 6 9 1015.0 1014.9 0.0
02/03:00pm 18.8 17.2 11.4 62 4.0 ENE 11 17 6 9 1015.2 1015.1 0.0
02/02:30pm 19.1 17.3 10.9 59 4.5 E 11 15 6 8 1015.2 1015.1 0.0
02/02:00pm 19.9 18.2 11.1 57 4.8 ENE 11 15 6 8 1015.7 1015.6 0.0

Other Formats:

Comma delimited format used in spreadsheet applications
http://www.bom.gov.au/fwo/IDN60801/IDN60801.94589.axf

JavaScript Object Notation format (JSON) in row-major order
http://www.bom.gov.au/fwo/IDN60801/IDN60801.94589.json